Arickaree, Colorado
Current Conditions -  °F | °C
As of 8:26 PM on Sunday 21 Dec 2014 (Local Time) from KLIC Reporting Station
Overcast Overcast  
Wind Chill: 31°   Ceiling: 7000
Heat Index: 36°   Visibility: 10mi
Dew Point: 34°   Wind: 6mph
Humidity: 93%   Direction: 30°NNE
Pressure: 29.6"   Gusts: NA
Location:  39.6673°N, 103.47°W
Report Text: KLIC 220326Z AUTO 03005KT 10SM SCT025 BKN070 OVC090 02/01 A2960 RMK AO2 RAE16 P0002 T00220011
Loading
Personal Weather Stations






























Interactive Weather Map New forecast layout! Learn more

10-Day Weather Forecast

Advertisements
Track Severe Weather on mobile